createdAt,value
2018-08-06T00:01:54.040Z,2.00
2018-08-06T00:04:23.657Z,1.70
2018-08-06T00:06:53.271Z,1.50
2018-08-06T00:09:22.895Z,1.80
2018-08-06T00:11:52.437Z,1.40
2018-08-06T00:14:22.142Z,1.43
2018-08-06T00:16:51.949Z,1.50
2018-08-06T00:19:21.632Z,1.60
2018-08-06T00:21:51.252Z,1.60
2018-08-06T00:24:20.839Z,1.97
2018-08-06T00:26:50.498Z,1.90
2018-08-06T00:29:20.026Z,1.50
2018-08-06T00:31:49.697Z,1.57
2018-08-06T00:34:19.332Z,1.50
2018-08-06T00:36:48.974Z,1.80
2018-08-06T00:39:18.606Z,1.50
2018-08-06T00:41:48.201Z,1.97
2018-08-06T00:44:17.938Z,1.90
2018-08-06T00:46:47.513Z,1.50
2018-08-06T00:49:17.602Z,1.90
2018-08-06T00:51:47.238Z,1.53
2018-08-06T00:54:16.490Z,1.67
2018-08-06T00:56:45.990Z,1.60
2018-08-06T00:59:15.582Z,1.70
2018-08-06T01:01:45.175Z,1.70
2018-08-06T01:04:14.727Z,1.70
2018-08-06T01:06:44.344Z,1.50
2018-08-06T01:09:14.448Z,1.80
2018-08-06T01:11:44.042Z,1.87
2018-08-06T01:14:13.754Z,1.83
2018-08-06T01:16:43.447Z,1.47
2018-08-06T01:19:13.200Z,1.80
2018-08-06T01:21:42.764Z,1.60
2018-08-06T01:24:12.468Z,1.70
2018-08-06T01:26:42.346Z,1.90
2018-08-06T01:29:11.912Z,2.40
2018-08-06T01:31:41.579Z,2.20
2018-08-06T01:34:11.214Z,2.10
2018-08-06T01:36:40.885Z,1.77
2018-08-06T01:39:12.480Z,1.97
2018-08-06T01:41:42.278Z,2.07
2018-08-06T01:44:11.962Z,2.00
2018-08-06T01:46:41.717Z,2.10
2018-08-06T01:49:11.448Z,1.73
2018-08-06T01:51:41.186Z,2.07
2018-08-06T01:54:10.839Z,1.80
2018-08-06T01:56:40.451Z,2.10
2018-08-06T01:59:10.179Z,2.20
2018-08-06T02:01:39.927Z,2.10
2018-08-06T02:04:09.646Z,1.93
2018-08-06T02:06:39.361Z,2.27
2018-08-06T02:09:09.808Z,2.30
2018-08-06T02:11:39.396Z,2.10
2018-08-06T02:14:09.172Z,2.33
2018-08-06T02:16:38.814Z,2.23
2018-08-06T02:19:08.449Z,2.00
2018-08-06T02:21:38.460Z,2.13
2018-08-06T02:24:08.203Z,2.10
2018-08-06T02:26:37.926Z,2.30
2018-08-06T02:29:07.576Z,2.33
2018-08-06T02:31:37.250Z,2.60
2018-08-06T02:34:07.071Z,2.07
2018-08-06T02:36:36.757Z,2.43
2018-08-06T02:39:09.327Z,2.37
2018-08-06T02:41:39.126Z,2.23
2018-08-06T02:44:09.009Z,2.30
2018-08-06T02:46:38.723Z,2.40
2018-08-06T02:49:08.423Z,2.23
2018-08-06T02:51:38.063Z,2.43
2018-08-06T02:54:07.727Z,2.50
2018-08-06T02:56:37.330Z,2.47
2018-08-06T02:59:06.931Z,2.23
2018-08-06T03:01:36.661Z,2.20
2018-08-06T03:04:06.389Z,2.20
2018-08-06T03:06:36.101Z,2.50
2018-08-06T03:09:09.301Z,2.50
2018-08-06T03:11:39.017Z,2.63
2018-08-06T03:14:08.944Z,2.63
2018-08-06T03:16:39.192Z,2.60
2018-08-06T03:19:08.847Z,2.73
2018-08-06T03:21:38.510Z,2.60
2018-08-06T03:24:08.307Z,2.63
2018-08-06T03:26:37.963Z,2.70
2018-08-06T03:29:07.690Z,2.53
2018-08-06T03:31:37.287Z,2.90
2018-08-06T03:34:06.933Z,2.67
2018-08-06T03:36:36.734Z,2.80
2018-08-06T03:39:09.401Z,2.90
2018-08-06T03:41:39.176Z,2.47
2018-08-06T03:44:09.152Z,2.77
2018-08-06T03:46:38.828Z,3.00
2018-08-06T03:49:08.398Z,2.97
2018-08-06T03:51:38.027Z,2.67
2018-08-06T03:54:07.701Z,2.63
2018-08-06T03:56:37.333Z,2.93
2018-08-06T03:59:06.927Z,3.10
2018-08-06T04:01:36.509Z,2.80
2018-08-06T04:04:06.200Z,2.90
2018-08-06T04:06:35.779Z,3.30
2018-08-06T04:09:07.063Z,3.20
2018-08-06T04:11:36.590Z,3.53
2018-08-06T04:14:06.265Z,3.17
2018-08-06T04:16:40.880Z,3.23
2018-08-06T04:19:11.565Z,2.97
2018-08-06T04:21:41.267Z,3.07
2018-08-06T04:24:10.954Z,2.97
2018-08-06T04:26:40.733Z,3.03
2018-08-06T04:29:10.250Z,3.13
2018-08-06T04:31:39.799Z,3.00
2018-08-06T04:34:09.412Z,2.63
2018-08-06T04:36:38.960Z,2.77
2018-08-06T04:39:08.578Z,2.80
2018-08-06T04:41:38.209Z,3.30
2018-08-06T04:44:08.142Z,2.90
2018-08-06T04:46:37.717Z,2.37
2018-08-06T04:49:07.587Z,2.77
2018-08-06T04:51:37.194Z,2.73
2018-08-06T04:54:06.764Z,2.73
2018-08-06T04:56:36.406Z,3.30
2018-08-06T04:59:05.988Z,3.23
2018-08-06T05:01:35.502Z,2.67
2018-08-06T05:04:04.696Z,3.07
2018-08-06T05:06:34.148Z,2.80
2018-08-06T05:09:06.014Z,3.07
2018-08-06T05:11:39.341Z,2.83
2018-08-06T05:14:08.910Z,3.10
2018-08-06T05:16:38.525Z,3.07
2018-08-06T05:19:08.568Z,2.90
2018-08-06T05:21:38.149Z,2.77
2018-08-06T05:24:07.747Z,2.90
2018-08-06T05:26:37.365Z,2.90
2018-08-06T05:29:06.956Z,2.90
2018-08-06T05:31:36.526Z,3.33
2018-08-06T05:34:06.237Z,2.63
2018-08-06T05:36:35.850Z,3.00
2018-08-06T05:39:09.155Z,2.63
2018-08-06T05:41:38.651Z,3.00
2018-08-06T05:44:08.189Z,2.60
2018-08-06T05:46:37.717Z,2.80
2018-08-06T05:49:07.178Z,2.93
2018-08-06T05:51:36.725Z,2.97
2018-08-06T05:54:06.469Z,2.20
2018-08-06T05:56:35.995Z,3.00
2018-08-06T05:59:05.568Z,2.73
2018-08-06T06:01:35.250Z,2.93
2018-08-06T06:04:04.844Z,2.47
2018-08-06T06:06:34.403Z,2.40
2018-08-06T06:09:05.001Z,2.77
2018-08-06T06:11:34.523Z,2.10
2018-08-06T06:14:04.546Z,2.40
2018-08-06T06:16:34.176Z,2.30
2018-08-06T06:19:03.831Z,2.60
2018-08-06T06:21:33.470Z,2.40
2018-08-06T06:24:02.972Z,2.20
2018-08-06T06:26:32.545Z,2.40
2018-08-06T06:29:02.056Z,2.50
2018-08-06T06:31:31.586Z,2.40
2018-08-06T06:34:01.203Z,2.60
2018-08-06T06:36:30.701Z,2.00
2018-08-06T06:39:00.215Z,2.43
2018-08-06T06:41:29.747Z,2.57
2018-08-06T06:43:59.261Z,2.00
2018-08-06T06:46:29.128Z,2.13
2018-08-06T06:48:58.684Z,1.70
2018-08-06T06:51:28.214Z,1.80
2018-08-06T06:53:57.767Z,1.60
2018-08-06T06:56:27.266Z,1.50
2018-08-06T06:58:56.762Z,1.57
2018-08-06T07:01:25.945Z,1.53
2018-08-06T07:03:55.257Z,1.50
2018-08-06T07:06:24.710Z,1.23
2018-08-06T07:08:54.565Z,1.40
2018-08-06T07:11:24.196Z,1.27
2018-08-06T07:13:53.783Z,1.80
2018-08-06T07:16:23.364Z,1.17
2018-08-06T07:18:53.003Z,1.30
2018-08-06T07:21:22.465Z,1.07
2018-08-06T07:23:51.920Z,1.27
2018-08-06T07:26:21.517Z,1.10
2018-08-06T07:28:51.156Z,1.17
2018-08-06T07:31:20.755Z,1.37
2018-08-06T07:33:50.333Z,1.20
2018-08-06T07:36:19.835Z,1.30
2018-08-06T07:38:49.416Z,1.10
2018-08-06T07:41:18.984Z,1.20
2018-08-06T07:43:48.539Z,1.20
2018-08-06T07:46:18.097Z,1.30
2018-08-06T07:48:47.580Z,1.10
2018-08-06T07:51:17.224Z,1.17
2018-08-06T07:53:46.771Z,1.20
2018-08-06T07:56:16.268Z,1.30
2018-08-06T07:58:45.888Z,1.10
2018-08-06T08:01:15.424Z,1.13
2018-08-06T08:03:44.952Z,1.20
2018-08-06T08:06:14.425Z,1.00
2018-08-06T08:08:44.000Z,1.30
2018-08-06T08:11:15.579Z,1.00
2018-08-06T08:13:45.349Z,1.13
2018-08-06T08:16:14.879Z,1.20
2018-08-06T08:18:44.397Z,1.07
2018-08-06T08:21:13.988Z,1.10
2018-08-06T08:23:43.536Z,1.17
2018-08-06T08:26:13.038Z,1.10
2018-08-06T08:28:42.532Z,1.10
2018-08-06T08:31:12.078Z,1.33
2018-08-06T08:33:41.647Z,1.10
2018-08-06T08:36:11.513Z,1.20
2018-08-06T08:38:41.007Z,1.40
2018-08-06T08:41:10.534Z,1.87
2018-08-06T08:43:40.126Z,1.40
2018-08-06T08:46:09.706Z,1.10
2018-08-06T08:48:39.230Z,1.10
2018-08-06T08:51:08.857Z,1.13
2018-08-06T08:53:38.356Z,1.43
2018-08-06T08:56:07.901Z,1.13
2018-08-06T08:58:37.525Z,1.00
2018-08-06T09:01:07.102Z,1.10
2018-08-06T09:03:36.640Z,1.00
2018-08-06T09:06:06.180Z,1.00
2018-08-06T09:08:35.739Z,1.10
2018-08-06T09:11:05.300Z,1.00
2018-08-06T09:13:34.806Z,1.53
2018-08-06T09:16:04.433Z,1.20
2018-08-06T09:18:33.908Z,1.10
2018-08-06T09:21:03.437Z,1.30
2018-08-06T09:23:32.980Z,1.10
2018-08-06T09:26:02.464Z,0.90
2018-08-06T09:28:32.039Z,1.40
2018-08-06T09:31:01.542Z,1.13
2018-08-06T09:33:31.236Z,1.00
2018-08-06T09:36:00.367Z,1.07
2018-08-06T09:38:29.754Z,1.50
2018-08-06T09:40:59.277Z,1.07
2018-08-06T09:43:28.758Z,1.17
2018-08-06T09:45:58.296Z,1.00
2018-08-06T09:48:27.855Z,1.20
2018-08-06T09:50:57.403Z,1.30
2018-08-06T09:53:26.974Z,1.10
2018-08-06T09:55:56.425Z,1.20
2018-08-06T09:58:25.941Z,1.17
2018-08-06T10:01:02.705Z,1.27
2018-08-06T10:03:32.191Z,1.30
2018-08-06T10:06:01.778Z,1.20
2018-08-06T10:08:31.258Z,1.33
2018-08-06T10:11:00.874Z,1.20
2018-08-06T10:13:30.353Z,1.20
2018-08-06T10:16:00.192Z,1.20
2018-08-06T10:18:29.739Z,1.13
2018-08-06T10:20:59.301Z,0.80
2018-08-06T10:23:28.786Z,1.00
2018-08-06T10:25:58.333Z,1.20
2018-08-06T10:28:27.894Z,1.20
2018-08-06T10:30:57.432Z,1.27
2018-08-06T10:33:26.981Z,0.90
2018-08-06T10:35:56.510Z,1.03
2018-08-06T10:38:25.619Z,1.03
2018-08-06T10:40:54.689Z,1.10
2018-08-06T10:43:24.103Z,1.20
2018-08-06T10:45:54.760Z,1.20
2018-08-06T10:48:24.390Z,1.10
2018-08-06T10:50:53.445Z,1.00
2018-08-06T10:53:22.908Z,0.98
2018-08-06T10:55:53.838Z,1.20
2018-08-06T10:58:23.341Z,1.15
2018-08-06T11:00:52.830Z,1.20
2018-08-06T11:03:22.569Z,1.35
2018-08-06T11:05:54.614Z,1.05
2018-08-06T11:08:25.126Z,1.20
2018-08-06T11:10:56.974Z,1.12
2018-08-06T11:13:26.696Z,1.10
2018-08-06T11:15:56.346Z,1.00
2018-08-06T11:18:25.571Z,1.20
2018-08-06T11:20:55.038Z,1.20
2018-08-06T11:23:24.521Z,1.20
2018-08-06T11:25:54.083Z,1.40
2018-08-06T11:28:23.701Z,1.00
2018-08-06T11:30:53.268Z,1.42
2018-08-06T11:33:22.808Z,1.25
2018-08-06T11:35:52.569Z,1.17
2018-08-06T11:38:22.149Z,1.40
2018-08-06T11:40:51.722Z,1.30
2018-08-06T11:43:25.520Z,1.20
2018-08-06T11:46:00.889Z,1.40
2018-08-06T11:48:36.351Z,1.30
2018-08-06T11:51:10.897Z,1.05
2018-08-06T11:53:43.595Z,1.30
2018-08-06T11:56:19.296Z,1.52
2018-08-06T11:58:49.689Z,1.12
2018-08-06T12:01:19.137Z,1.20
2018-08-06T12:03:48.678Z,1.00
2018-08-06T12:06:23.696Z,1.17
2018-08-06T12:08:53.252Z,1.30
2018-08-06T12:11:22.847Z,1.10
2018-08-06T12:13:52.487Z,1.00
2018-08-06T12:16:22.135Z,1.32
2018-08-06T12:18:51.654Z,0.95
2018-08-06T12:21:23.197Z,1.02
2018-08-06T12:23:52.758Z,1.20
2018-08-06T12:26:22.389Z,1.02
2018-08-06T12:28:51.932Z,1.45
2018-08-06T12:31:21.479Z,1.40
2018-08-06T12:33:51.041Z,1.15
2018-08-06T12:36:20.708Z,1.05
2018-08-06T12:39:04.798Z,1.25
2018-08-06T12:41:34.826Z,0.93
2018-08-06T12:44:04.430Z,1.20
2018-08-06T12:46:33.938Z,1.05
2018-08-06T12:49:03.487Z,1.10
2018-08-06T12:51:33.062Z,1.20
2018-08-06T12:54:02.662Z,1.20
2018-08-06T12:56:32.217Z,1.10
2018-08-06T12:59:01.752Z,1.20
2018-08-06T13:01:31.305Z,1.30
2018-08-06T13:04:00.595Z,1.20
2018-08-06T13:06:30.083Z,1.10
2018-08-06T13:08:59.856Z,1.20
2018-08-06T13:11:29.421Z,1.10
2018-08-06T13:13:58.963Z,1.10
2018-08-06T13:16:28.508Z,0.93
2018-08-06T13:18:58.086Z,1.17
2018-08-06T13:21:27.687Z,1.10
2018-08-06T13:23:57.190Z,1.30
2018-08-06T13:26:26.694Z,1.30
2018-08-06T13:28:56.257Z,1.22
2018-08-06T13:31:26.701Z,1.20
2018-08-06T13:33:56.236Z,1.02
2018-08-06T13:36:25.889Z,1.02
2018-08-06T13:38:55.698Z,1.15
2018-08-06T13:41:25.236Z,1.00
2018-08-06T13:43:54.738Z,1.12
2018-08-06T13:46:24.232Z,1.00
2018-08-06T13:48:54.817Z,1.30
2018-08-06T13:51:24.357Z,1.10
2018-08-06T13:53:54.028Z,1.05
2018-08-06T13:56:23.669Z,1.10
2018-08-06T13:58:53.172Z,0.90
2018-08-06T14:01:22.831Z,1.00
2018-08-06T14:03:52.430Z,1.10
2018-08-06T14:06:21.938Z,1.17
2018-08-06T14:08:51.642Z,1.20
2018-08-06T14:11:21.342Z,1.15
2018-08-06T14:13:55.017Z,1.12
2018-08-06T14:16:24.774Z,1.10
2018-08-06T14:18:54.720Z,1.10
2018-08-06T14:21:24.243Z,1.10
2018-08-06T14:23:53.717Z,1.15
2018-08-06T14:26:23.350Z,0.98
2018-08-06T14:28:55.818Z,1.02
2018-08-06T14:31:25.732Z,1.02
2018-08-06T14:33:55.205Z,1.10
2018-08-06T14:36:24.769Z,1.00
2018-08-06T14:38:54.271Z,1.12
2018-08-06T14:41:24.151Z,1.20
2018-08-06T14:43:53.730Z,1.00
2018-08-06T14:46:26.916Z,1.27
2018-08-06T14:48:56.887Z,0.90
2018-08-06T14:51:26.999Z,1.10
2018-08-06T14:53:57.838Z,1.25
2018-08-06T14:56:27.458Z,0.90
2018-08-06T14:58:57.002Z,1.00
2018-08-06T15:01:27.924Z,1.00
2018-08-06T15:03:58.011Z,1.00
2018-08-06T15:06:27.754Z,1.10
2018-08-06T15:08:59.184Z,1.00
2018-08-06T15:11:28.759Z,0.85
2018-08-06T15:13:58.385Z,0.93
2018-08-06T15:16:28.956Z,0.93
2018-08-06T15:18:59.013Z,0.90
2018-08-06T15:21:29.324Z,0.82
2018-08-06T15:23:59.560Z,1.10
2018-08-06T15:26:29.982Z,0.90
2018-08-06T15:28:59.500Z,0.90
2018-08-06T15:31:29.345Z,1.00
2018-08-06T15:33:58.877Z,1.00
2018-08-06T15:36:32.694Z,1.00
2018-08-06T15:39:02.282Z,0.80
2018-08-06T15:41:31.858Z,0.70
2018-08-06T15:44:01.602Z,0.90
2018-08-06T15:46:31.192Z,0.88
2018-08-06T15:49:11.376Z,0.93
2018-08-06T15:51:48.787Z,0.90
2018-08-06T15:54:18.275Z,0.90
2018-08-06T15:56:47.868Z,0.85
2018-08-06T15:59:17.401Z,0.80
2018-08-06T16:01:46.996Z,0.98
2018-08-06T16:04:16.489Z,1.00
2018-08-06T16:06:45.974Z,1.02
2018-08-06T16:09:15.521Z,1.10
2018-08-06T16:11:44.603Z,0.90
2018-08-06T16:14:14.094Z,0.93
2018-08-06T16:16:44.582Z,1.15
2018-08-06T16:19:14.082Z,1.10
2018-08-06T16:21:43.665Z,1.05
2018-08-06T16:24:13.208Z,0.90
2018-08-06T16:26:42.810Z,0.72
2018-08-06T16:29:12.386Z,0.90
2018-08-06T16:31:42.306Z,0.80
2018-08-06T16:34:11.833Z,0.80
2018-08-06T16:36:41.395Z,0.88
2018-08-06T16:39:13.687Z,0.95
2018-08-06T16:41:43.282Z,0.80
2018-08-06T16:44:16.967Z,0.80
2018-08-06T16:46:50.275Z,0.80
2018-08-06T16:49:20.444Z,1.10
2018-08-06T16:51:56.008Z,0.90
2018-08-06T16:54:31.774Z,1.00
2018-08-06T16:57:01.536Z,1.00
2018-08-06T16:59:35.894Z,1.00
2018-08-06T17:02:10.939Z,1.20
2018-08-06T17:04:40.666Z,1.00
2018-08-06T17:07:15.072Z,0.95
2018-08-06T17:09:47.583Z,0.95
2018-08-06T17:12:20.565Z,0.85
2018-08-06T17:14:50.303Z,0.82
2018-08-06T17:17:22.021Z,0.90
2018-08-06T17:19:51.971Z,1.02
2018-08-06T17:22:21.537Z,1.00
2018-08-06T17:24:51.128Z,1.12
2018-08-06T17:27:20.649Z,0.93
2018-08-06T17:29:50.185Z,1.00
2018-08-06T17:32:19.701Z,1.10
2018-08-06T17:34:49.138Z,1.32
2018-08-06T17:37:19.794Z,0.90
2018-08-06T17:39:49.319Z,0.80
2018-08-06T17:42:18.840Z,0.80
2018-08-06T17:44:48.267Z,0.82
2018-08-06T17:47:17.819Z,1.00
2018-08-06T17:49:47.290Z,1.00
2018-08-06T17:52:16.857Z,0.80
2018-08-06T17:54:46.310Z,1.20
2018-08-06T17:57:15.940Z,0.90
2018-08-06T17:59:45.428Z,1.05
2018-08-06T18:02:15.025Z,0.80
2018-08-06T18:04:44.148Z,1.00
2018-08-06T18:07:13.467Z,1.00
2018-08-06T18:09:45.111Z,1.05
2018-08-06T18:12:14.592Z,1.20
2018-08-06T18:14:44.060Z,1.00
2018-08-06T18:17:13.585Z,1.10
2018-08-06T18:19:43.077Z,0.98
2018-08-06T18:22:12.681Z,1.20
2018-08-06T18:24:41.789Z,0.90
2018-08-06T18:27:11.163Z,0.90
2018-08-06T18:29:40.646Z,1.10
2018-08-06T18:32:10.172Z,1.02
2018-08-06T18:34:39.635Z,0.95
2018-08-06T18:37:09.112Z,1.00
2018-08-06T18:39:38.613Z,1.10
2018-08-06T18:42:08.085Z,1.07
2018-08-06T18:44:37.597Z,1.00
2018-08-06T18:47:08.122Z,1.00
2018-08-06T18:49:37.667Z,1.00
2018-08-06T18:52:07.993Z,1.30
2018-08-06T18:54:38.326Z,1.00
2018-08-06T18:57:14.836Z,1.17
2018-08-06T18:59:52.773Z,1.10
2018-08-06T19:02:25.637Z,1.13
2018-08-06T19:04:55.106Z,1.10
2018-08-06T19:07:24.644Z,1.10
2018-08-06T19:09:58.517Z,1.20
2018-08-06T19:12:40.992Z,1.60
2018-08-06T19:15:14.807Z,1.20
2018-08-06T19:17:49.400Z,1.30
2018-08-06T19:20:18.890Z,1.17
2018-08-06T19:22:54.476Z,1.40
2018-08-06T19:25:34.341Z,1.20
2018-08-06T19:28:05.415Z,1.30
2018-08-06T19:30:43.683Z,1.20
2018-08-06T19:33:14.246Z,1.47
2018-08-06T19:35:52.347Z,1.30
2018-08-06T19:38:22.063Z,1.17
2018-08-06T19:40:51.600Z,1.30
2018-08-06T19:43:26.616Z,1.30
2018-08-06T19:45:56.837Z,1.77
2018-08-06T19:48:26.370Z,1.40
2018-08-06T19:50:55.927Z,1.60
2018-08-06T19:53:25.429Z,1.63
2018-08-06T19:56:00.193Z,1.60
2018-08-06T19:58:29.773Z,1.70
2018-08-06T20:00:59.294Z,1.57
2018-08-06T20:03:28.738Z,1.53
2018-08-06T20:06:01.883Z,1.60
2018-08-06T20:08:31.699Z,1.20
2018-08-06T20:11:01.403Z,1.20
2018-08-06T20:13:38.513Z,1.47
2018-08-06T20:16:21.701Z,1.60
2018-08-06T20:19:01.640Z,1.47
2018-08-06T20:21:43.322Z,1.30
2018-08-06T20:24:22.160Z,1.20
2018-08-06T20:27:04.327Z,1.23
2018-08-06T20:29:45.377Z,1.83
2018-08-06T20:32:22.397Z,1.80
2018-08-06T20:34:57.239Z,1.30
2018-08-06T20:37:26.925Z,1.20
2018-08-06T20:40:04.019Z,1.30
2018-08-06T20:42:46.080Z,1.30
2018-08-06T20:45:25.432Z,1.10
2018-08-06T20:48:02.252Z,1.20
2018-08-06T20:50:35.071Z,1.20
2018-08-06T20:53:10.265Z,1.20
2018-08-06T20:55:45.370Z,1.30
2018-08-06T20:58:27.156Z,1.20
2018-08-06T21:01:03.862Z,1.57
2018-08-06T21:03:39.870Z,1.00
2018-08-06T21:06:21.810Z,1.40
2018-08-06T21:08:55.747Z,1.10
2018-08-06T21:11:30.415Z,1.20
2018-08-06T21:14:03.592Z,1.17
2018-08-06T21:16:41.763Z,1.20
2018-08-06T21:19:19.021Z,1.20
2018-08-06T21:21:57.949Z,1.27
2018-08-06T21:24:31.027Z,1.17
2018-08-06T21:27:14.271Z,1.27
2018-08-06T21:29:47.785Z,1.10
2018-08-06T21:32:18.526Z,1.10
2018-08-06T21:34:54.563Z,1.30
2018-08-06T21:37:29.169Z,1.20
2018-08-06T21:40:00.111Z,1.10
2018-08-06T21:42:30.657Z,1.27
2018-08-06T21:45:08.132Z,1.07
2018-08-06T21:47:47.740Z,1.20
2018-08-06T21:50:25.795Z,1.50
2018-08-06T21:52:55.309Z,1.47
2018-08-06T21:55:24.835Z,1.70
2018-08-06T21:57:55.922Z,1.20
2018-08-06T22:00:38.181Z,1.27
2018-08-06T22:03:11.248Z,1.30
2018-08-06T22:05:40.893Z,1.30
2018-08-06T22:08:10.487Z,1.30
2018-08-06T22:10:46.992Z,1.10
2018-08-06T22:13:17.545Z,1.07
2018-08-06T22:15:47.057Z,1.20
2018-08-06T22:18:16.555Z,1.20
2018-08-06T22:20:46.060Z,1.10
2018-08-06T22:23:15.530Z,1.03
2018-08-06T22:25:45.031Z,1.20
2018-08-06T22:28:14.580Z,1.37
2018-08-06T22:30:44.184Z,1.30
2018-08-06T22:33:13.705Z,1.37
2018-08-06T22:35:43.250Z,1.50
2018-08-06T22:38:12.780Z,1.30
2018-08-06T22:40:42.304Z,1.40
2018-08-06T22:43:11.819Z,1.57
2018-08-06T22:45:41.319Z,1.47
2018-08-06T22:48:10.893Z,1.63
2018-08-06T22:50:40.303Z,1.60
2018-08-06T22:53:09.394Z,1.70
2018-08-06T22:55:49.815Z,1.70
2018-08-06T22:58:19.324Z,1.43
2018-08-06T23:00:48.899Z,1.47
2018-08-06T23:03:18.425Z,1.20
2018-08-06T23:05:47.906Z,1.53
2018-08-06T23:08:21.537Z,1.30
2018-08-06T23:10:51.341Z,1.13
2018-08-06T23:13:21.971Z,1.20
2018-08-06T23:15:52.589Z,1.20
2018-08-06T23:18:23.171Z,1.30
2018-08-06T23:20:52.687Z,1.40
2018-08-06T23:23:22.143Z,1.20
2018-08-06T23:25:52.587Z,1.30
2018-08-06T23:28:22.102Z,1.20
2018-08-06T23:30:51.628Z,1.43
2018-08-06T23:33:21.119Z,1.87
2018-08-06T23:35:50.564Z,1.43
2018-08-06T23:38:20.212Z,1.60
2018-08-06T23:40:49.690Z,1.43
2018-08-06T23:43:19.204Z,1.33
2018-08-06T23:45:48.827Z,1.53
2018-08-06T23:48:19.308Z,1.40
2018-08-06T23:50:48.814Z,1.30
2018-08-06T23:53:19.133Z,1.40
2018-08-06T23:55:48.686Z,1.60
2018-08-06T23:58:19.378Z,1.40
